Time;durP1;ratioP1;P1;durP2;ratioP2;P2;SDS_P1;SDS_P2;PMS_P1;PMS_P2;Temp;Humidity;BMP_temperature;BMP_pressure;BME280_temperature;BME280_humidity;BME280_pressure;Samples;Min_cycle;Max_cycle;Signal;HPM_P1;HPM_P2
2022/12/29 00:01:29;;;;;;;3.65;2.13;;;;;;;2.04;67.32;99737.09;4952604;28;20089;-79
2022/12/29 00:03:56;;;;;;;2.65;1.90;;;;;;;2.21;67.17;99765.72;4920842;29;20130;-78
2022/12/29 00:06:22;;;;;;;3.28;2.30;;;;;;;2.02;67.08;99740.44;4953297;28;20571;-76
2022/12/29 00:08:48;;;;;;;9.63;2.30;;;;;;;2.11;67.31;99749.22;4919580;29;20145;-77
2022/12/29 00:11:20;;;;;;;5.32;1.88;;;;;;;2.11;67.46;99763.78;4919028;28;20087;-78
2022/12/29 00:16:33;;;;;;;4.97;2.15;;;;;;;2.03;67.57;99762.72;4954603;28;20126;-79
2022/12/29 00:18:59;;;;;;;3.13;1.67;;;;;;;1.75;67.75;99734.66;4968892;28;20070;-77
2022/12/29 00:35:33;;;;;;;3.78;1.40;;;;;;;1.57;67.53;99782.91;4952192;28;20050;-79
2022/12/29 00:46:18;;;;;;;4.22;1.50;;;;;;;1.35;67.75;99744.72;4922859;29;20047;-79
2022/12/29 00:51:29;;;;;;;5.03;1.33;;;;;;;1.34;67.33;99772.88;4954408;28;20141;-78
2022/12/29 00:53:55;;;;;;;3.72;1.42;;;;;;;1.36;66.61;99804.56;4940243;28;20047;-77
2022/12/29 00:56:21;;;;;;;3.55;1.30;;;;;;;1.23;67.50;99784.50;4926554;29;20112;-77
2022/12/29 00:58:47;;;;;;;3.63;1.50;;;;;;;1.23;67.25;99795.66;4959594;28;20050;-78
2022/12/29 01:01:13;;;;;;;3.17;1.50;;;;;;;1.08;66.90;99778.13;4927018;29;20039;-81
2022/12/29 01:03:39;;;;;;;2.90;1.50;;;;;;;0.90;67.19;99763.06;4955629;28;20047;-80
2022/12/29 01:06:07;;;;;;;4.07;1.73;;;;;;;0.71;66.90;99756.56;4919246;28;20036;-78
2022/12/29 01:08:34;;;;;;;3.22;1.30;;;;;;;0.60;66.75;99769.88;4958669;28;20051;-80
2022/12/29 01:11:06;;;;;;;4.68;1.83;;;;;;;0.62;67.12;99794.66;4925964;28;20512;-79
2022/12/29 01:13:32;;;;;;;4.95;1.42;;;;;;;0.46;67.12;99771.16;4958289;28;20043;-79
2022/12/29 01:15:58;;;;;;;5.10;1.63;;;;;;;0.53;67.39;99795.25;4939361;28;20039;-80
2022/12/29 01:18:26;;;;;;;5.18;1.45;;;;;;;0.48;67.67;99772.06;4939199;28;20102;-83
2022/12/29 01:21:02;;;;;;;2.88;1.33;;;;;;;0.68;67.29;99805.13;4958923;28;20130;-78
2022/12/29 01:23:29;;;;;;;5.43;2.05;;;;;;;0.67;67.71;99799.09;4941518;29;20047;-80
2022/12/29 01:25:55;;;;;;;2.30;1.50;;;;;;;0.80;67.48;99813.16;4944606;28;20118;-77
2022/12/29 01:28:22;;;;;;;4.05;1.38;;;;;;;0.97;67.79;99817.97;4928330;29;20497;-79
2022/12/29 01:30:48;;;;;;;3.10;1.58;;;;;;;0.82;67.49;99778.22;4946369;28;20047;-79
2022/12/29 01:33:14;;;;;;;2.03;1.30;;;;;;;0.90;66.88;99798.94;4955064;29;20047;-80
2022/12/29 01:35:40;;;;;;;5.05;1.38;;;;;;;1.11;66.72;99818.34;4944574;29;20082;-79
2022/12/29 01:38:06;;;;;;;3.28;1.65;;;;;;;1.19;66.93;99820.34;4943154;28;20516;-78
2022/12/29 01:40:32;;;;;;;4.00;1.58;;;;;;;1.29;66.87;99825.72;4941167;29;20047;-78
2022/12/29 01:42:58;;;;;;;3.25;1.98;;;;;;;1.32;66.66;99810.44;4942212;28;20050;-80
2022/12/29 01:45:24;;;;;;;3.90;1.88;;;;;;;1.40;66.60;99814.09;4943585;28;20090;-82
2022/12/29 01:48:01;;;;;;;5.03;1.98;;;;;;;1.46;66.47;99813.41;4937788;28;20035;-80
2022/12/29 01:50:35;;;;;;;4.28;2.00;;;;;;;1.44;65.54;99820.16;4962034;28;20125;-77
2022/12/29 01:53:10;;;;;;;4.55;1.90;;;;;;;1.48;66.05;99822.00;4962897;29;20091;-80
2022/12/29 01:55:48;;;;;;;4.05;2.03;;;;;;;1.47;65.87;99823.69;4960709;29;20011;-81
2022/12/29 01:58:17;;;;;;;5.72;1.73;;;;;;;1.22;65.84;99791.34;4947147;29;20051;-80
2022/12/29 02:00:44;;;;;;;3.78;1.80;;;;;;;1.47;65.77;99830.53;4946920;28;20043;-80
2022/12/29 02:03:11;;;;;;;5.07;1.70;;;;;;;1.46;65.57;99827.06;4943216;29;20050;-79
2022/12/29 02:05:48;;;;;;;4.35;1.90;;;;;;;1.43;65.96;99827.00;4924968;29;20543;-79
2022/12/29 02:08:14;;;;;;;4.13;1.70;;;;;;;1.25;65.40;99814.53;4924591;29;20043;-80
2022/12/29 02:10:42;;;;;;;6.03;2.00;;;;;;;1.39;65.55;99821.72;4957532;28;20126;-82
2022/12/29 02:13:08;;;;;;;6.85;2.15;;;;;;;1.43;65.71;99821.88;4939496;29;20051;-78
2022/12/29 02:16:13;;;;;;;3.15;1.50;;;;;;;1.50;65.46;99828.91;4930393;28;20043;-80
2022/12/29 02:18:55;;;;;;;4.82;1.60;;;;;;;1.44;65.04;99831.28;4923741;29;20050;-80
2022/12/29 02:21:46;;;;;;;3.45;1.50;;;;;;;1.39;64.88;99832.00;4923529;29;20039;-82
2022/12/29 02:24:46;;;;;;;3.97;1.55;;;;;;;1.41;65.15;99831.22;4924999;29;20047;-76
2022/12/29 02:27:47;;;;;;;5.18;2.08;;;;;;;1.44;65.00;99841.53;4939521;29;20039;-81
2022/12/29 02:30:49;;;;;;;4.13;1.63;;;;;;;1.29;65.06;99806.09;4907580;29;20536;-78
2022/12/29 02:33:30;;;;;;;3.13;1.75;;;;;;;1.58;65.28;99838.53;4957647;28;20476;-79
2022/12/29 02:36:11;;;;;;;4.45;1.77;;;;;;;1.63;64.76;99839.53;4938309;29;20476;-76
2022/12/29 02:38:59;;;;;;;6.33;2.10;;;;;;;1.68;64.61;99845.63;4922640;29;20122;-81
2022/12/29 02:41:32;;;;;;;5.93;2.00;;;;;;;1.56;64.01;99837.59;4941978;29;20045;-78
2022/12/29 02:44:04;;;;;;;4.78;2.30;;;;;;;1.42;64.17;99837.22;4926827;29;20051;-78
2022/12/29 02:47:24;;;;;;;4.63;2.08;;;;;;;1.27;63.92;99846.19;4951131;28;20047;-78
2022/12/29 02:50:08;;;;;;;5.38;1.92;;;;;;;1.01;63.93;99830.03;4866839;29;20056;-80
2022/12/29 02:52:40;;;;;;;5.45;2.10;;;;;;;1.02;64.63;99842.91;4919444;29;20103;-81
2022/12/29 02:55:06;;;;;;;;;;;;;;;0.97;64.51;99857.25;4919676;29;20098;-81
2022/12/29 02:57:34;;;;;;;4.20;2.10;;;;;;;0.88;64.79;99828.81;4934939;29;20419;-80
2022/12/29 03:00:07;;;;;;;6.22;2.13;;;;;;;1.05;64.41;99849.81;4919820;29;20047;-80
2022/12/29 03:02:33;;;;;;;3.88;2.10;;;;;;;1.02;64.14;99852.25;4937955;29;20420;-79
2022/12/29 03:05:18;;;;;;;8.48;2.00;;;;;;;0.83;64.41;99827.78;4954028;29;20039;-80
2022/12/29 03:08:05;;;;;;;4.53;1.75;;;;;;;0.98;64.19;99853.88;4955785;29;20020;-79
2022/12/29 03:11:00;;;;;;;6.07;1.98;;;;;;;0.92;63.69;99847.69;4922749;29;20051;-80
2022/12/29 03:16:57;;;;;;;3.75;2.00;;;;;;;0.48;63.90;99855.69;4954507;29;20079;-79
2022/12/29 03:19:30;;;;;;;6.25;2.47;;;;;;;0.43;64.95;99859.00;4955939;29;20019;-80
2022/12/29 03:24:57;;;;;;;7.40;2.30;;;;;;;0.02;64.74;99834.56;4938912;29;20102;-77
2022/12/29 03:27:43;;;;;;;6.63;2.33;;;;;;;-0.05;64.18;99844.56;4921152;29;20051;-81
2022/12/29 03:30:10;;;;;;;3.83;1.95;;;;;;;-0.08;64.11;99862.38;4919361;29;20043;-80
2022/12/29 03:32:46;;;;;;;4.97;2.42;;;;;;;0.02;64.34;99878.91;4954502;29;20036;-79
2022/12/29 03:35:19;;;;;;;6.07;2.10;;;;;;;0.01;64.87;99881.44;4954389;29;20043;-78
2022/12/29 03:38:18;;;;;;;7.85;2.60;;;;;;;0.03;64.76;99887.47;4954744;29;20020;-80
2022/12/29 03:40:51;;;;;;;6.20;2.20;;;;;;;-0.06;64.54;99844.53;4952928;29;20043;-81
2022/12/29 03:43:18;;;;;;;6.57;2.20;;;;;;;0.22;65.40;99871.94;4921549;29;20073;-80
2022/12/29 03:45:46;;;;;;;5.80;2.25;;;;;;;0.01;65.05;99825.13;4919126;29;20130;-80
2022/12/29 03:48:12;;;;;;;7.90;2.63;;;;;;;0.36;64.81;99861.28;4918786;29;20043;-80
2022/12/29 03:50:40;;;;;;;7.45;2.65;;;;;;;0.67;64.59;99895.59;4933288;29;20062;-80
2022/12/29 03:53:06;;;;;;;6.32;2.33;;;;;;;0.58;65.01;99885.91;4933869;29;20099;-79
2022/12/29 03:55:33;;;;;;;6.80;2.35;;;;;;;0.55;64.88;99884.09;4919698;29;20481;-82
2022/12/29 03:57:59;;;;;;;9.63;3.20;;;;;;;0.77;64.79;99907.91;4922362;29;20040;-77
2022/12/29 04:00:38;;;;;;;4.05;2.25;;;;;;;0.78;64.91;99904.47;4950586;29;20051;-80
2022/12/29 04:03:04;;;;;;;6.50;2.95;;;;;;;0.64;64.83;99875.00;4920387;29;20039;-79
2022/12/29 04:05:31;;;;;;;4.03;2.13;;;;;;;0.95;64.70;99911.88;4905035;29;20047;-77
2022/12/29 04:07:58;;;;;;;3.58;2.03;;;;;;;0.74;64.64;99877.06;4937183;29;20059;-83
2022/12/29 04:10:24;;;;;;;6.90;2.58;;;;;;;0.74;64.30;99880.47;4936283;29;20063;-82
2022/12/29 04:12:54;;;;;;;9.63;2.47;;;;;;;0.77;64.03;99881.38;4936950;29;20031;-79
2022/12/29 04:15:20;;;;;;;9.60;2.30;;;;;;;0.54;64.91;99840.53;4936783;29;20527;-81
2022/12/29 04:17:46;;;;;;;6.78;2.75;;;;;;;0.85;64.52;99879.94;4935159;29;20046;-81
2022/12/29 04:23:04;;;;;;;8.65;2.60;;;;;;;0.99;64.02;99906.88;4933973;29;20102;-79
2022/12/29 04:25:33;;;;;;;9.60;3.17;;;;;;;0.93;64.40;99898.13;4933563;29;20126;-77
2022/12/29 04:27:59;;;;;;;3.67;2.40;;;;;;;0.83;64.28;99885.00;4918326;29;20070;-81
2022/12/29 04:30:46;;;;;;;8.00;3.55;;;;;;;0.90;63.57;99902.34;4917965;29;20054;-79
2022/12/29 04:33:18;;;;;;;6.07;3.10;;;;;;;0.83;63.76;99900.38;4933022;29;20093;-80
2022/12/29 04:35:45;;;;;;;7.50;2.85;;;;;;;0.83;63.81;99902.94;4933319;29;20070;-80
2022/12/29 04:38:11;;;;;;;7.03;2.72;;;;;;;0.72;63.83;99907.72;4932838;29;20106;-80
2022/12/29 04:40:42;;;;;;;4.05;2.92;;;;;;;0.55;63.83;99893.50;4934097;29;20043;-83
2022/12/29 04:43:09;;;;;;;4.85;2.90;;;;;;;0.57;63.40;99890.16;4902701;29;20078;-77
2022/12/29 04:45:52;;;;;;;4.95;2.97;;;;;;;0.64;64.29;99905.72;4934333;29;20039;-80
2022/12/29 04:48:25;;;;;;;8.27;2.83;;;;;;;0.71;63.55;99929.03;4920966;29;20039;-77
2022/12/29 04:51:14;;;;;;;5.30;2.58;;;;;;;0.56;64.23;99900.34;4935304;29;20074;-78
2022/12/29 04:53:41;;;;;;;7.60;3.20;;;;;;;0.62;64.03;99917.63;4925881;28;20046;-79
2022/12/29 04:56:08;;;;;;;7.13;2.78;;;;;;;0.58;64.18;99922.63;4958033;28;20035;-81
2022/12/29 04:58:39;;;;;;;8.85;2.90;;;;;;;0.52;63.32;99922.44;4940335;28;20399;-81
2022/12/29 05:01:05;;;;;;;7.90;2.88;;;;;;;0.48;63.19;99924.84;4942803;28;20035;-79
2022/12/29 05:03:31;;;;;;;6.88;2.97;;;;;;;0.59;63.46;99937.19;4940355;29;20043;-81
2022/12/29 05:05:57;;;;;;;8.07;2.92;;;;;;;0.46;63.80;99904.31;4940012;28;20531;-79
2022/12/29 05:08:24;;;;;;;7.40;2.97;;;;;;;0.66;64.01;99924.59;4923845;28;20126;-79
2022/12/29 05:10:50;;;;;;;8.20;3.40;;;;;;;0.80;63.94;99948.09;4924176;29;20055;-79
2022/12/29 05:13:17;;;;;;;7.55;3.03;;;;;;;0.81;63.38;99948.13;4946958;28;20031;-83
2022/12/29 05:15:53;;;;;;;6.00;3.10;;;;;;;0.76;63.39;99942.03;4935052;29;20058;-81
2022/12/29 05:18:21;;;;;;;6.85;3.20;;;;;;;0.71;62.90;99939.28;4923818;28;20043;-80
2022/12/29 05:20:48;;;;;;;7.85;3.95;;;;;;;0.58;63.25;99943.13;4939327;29;20050;-78
2022/12/29 05:23:15;;;;;;;5.95;3.38;;;;;;;0.51;63.37;99945.44;4923375;28;20051;-79
2022/12/29 05:25:44;;;;;;;6.90;3.10;;;;;;;0.42;63.40;99948.53;4925473;29;20137;-81
2022/12/29 05:28:19;;;;;;;7.18;3.47;;;;;;;0.08;62.95;99924.34;4941993;28;20505;-82
2022/12/29 05:30:51;;;;;;;6.90;3.45;;;;;;;0.16;63.57;99960.44;4944386;28;20054;-77
2022/12/29 05:33:19;;;;;;;6.30;3.67;;;;;;;-0.08;63.90;99941.69;4927028;28;20050;-79
2022/12/29 05:35:46;;;;;;;7.90;3.85;;;;;;;-0.10;63.91;99945.88;4943169;29;20046;-79
2022/12/29 05:38:13;;;;;;;8.98;4.07;;;;;;;-0.15;63.93;99947.41;4939585;28;20062;-80
2022/12/29 05:40:39;;;;;;;8.27;3.70;;;;;;;-0.07;64.33;99968.16;4939031;29;20071;-79
2022/12/29 05:43:15;;;;;;;5.85;4.13;;;;;;;-0.32;63.39;99937.41;4908976;28;20043;-78
2022/12/29 05:46:05;;;;;;;8.07;3.88;;;;;;;-0.22;63.47;99971.84;4936606;28;20055;-78
2022/12/29 05:48:49;;;;;;;8.82;3.75;;;;;;;-0.24;63.51;99973.53;4959000;28;20050;-81
2022/12/29 05:51:32;;;;;;;9.70;3.30;;;;;;;-0.42;63.81;99947.22;4962588;28;20562;-78
2022/12/29 05:53:59;;;;;;;8.00;4.07;;;;;;;-0.44;63.96;99947.19;4961851;28;20070;-80
2022/12/29 05:56:27;;;;;;;7.93;3.88;;;;;;;-0.43;63.86;99946.38;4945504;29;20043;-80
2022/12/29 05:58:57;;;;;;;6.55;3.72;;;;;;;-0.47;63.94;99957.28;4929107;28;20186;-82
2022/12/29 06:01:23;;;;;;;8.13;3.80;;;;;;;-0.47;63.66;99965.84;4942076;29;20050;-80
2022/12/29 06:03:49;;;;;;;9.30;3.72;;;;;;;-0.45;63.51;99978.69;4940287;29;20047;-79
2022/12/29 06:06:18;;;;;;;11.00;3.72;;;;;;;-0.52;64.53;99981.78;4940448;29;20058;-78
2022/12/29 06:08:45;;;;;;;7.20;3.45;;;;;;;-1.02;63.70;99897.22;4927891;28;20137;-79
2022/12/29 06:11:12;;;;;;;11.57;4.10;;;;;;;-0.47;64.56;99985.41;4910923;29;20405;-78
2022/12/29 06:13:43;;;;;;;8.07;4.03;;;;;;;-0.58;63.99;99966.25;4957452;28;20043;-79
2022/12/29 06:16:09;;;;;;;10.13;3.92;;;;;;;-0.51;63.75;99986.09;4924920;28;20042;-79
2022/12/29 06:18:40;;;;;;;11.45;4.13;;;;;;;-1.09;64.12;99875.69;4909723;29;20192;-80
2022/12/29 06:21:07;;;;;;;9.60;4.10;;;;;;;-0.38;64.63;99988.34;4930595;28;20039;-82
2022/12/29 06:23:40;;;;;;;8.88;4.05;;;;;;;-0.72;64.46;99918.00;4945985;28;20046;-80
2022/12/29 06:26:07;;;;;;;8.80;4.20;;;;;;;-1.14;63.78;99832.09;4963865;28;20047;-83
2022/12/29 06:28:46;;;;;;;11.50;4.80;;;;;;;-1.32;63.70;99790.53;4924444;28;20038;-83
2022/12/29 06:31:14;;;;;;;8.77;4.35;;;;;;;-0.08;64.04;99989.44;4944440;28;20039;-80
2022/12/29 06:34:00;;;;;;;10.98;4.47;;;;;;;-0.63;63.85;99895.34;4940088;28;20054;-80
2022/12/29 06:36:27;;;;;;;9.40;4.40;;;;;;;-1.36;64.00;99758.88;4923175;28;20094;-82
2022/12/29 06:38:54;;;;;;;9.07;4.95;;;;;;;-0.15;63.93;99955.06;4923387;28;20043;-80
2022/12/29 06:41:22;;;;;;;9.68;4.95;;;;;;;-0.27;64.00;99954.59;4924239;28;20050;-78
2022/12/29 06:44:22;;;;;;;8.73;4.65;;;;;;;-0.17;64.10;99979.72;4935413;28;20051;-80
2022/12/29 06:46:53;;;;;;;7.93;4.93;;;;;;;-0.10;63.76;99981.69;4942037;28;20043;-81
2022/12/29 06:49:20;;;;;;;11.85;4.75;;;;;;;-0.18;63.38;99978.00;4923510;29;20166;-83
2022/12/29 06:51:46;;;;;;;9.63;4.88;;;;;;;-0.20;63.82;99990.69;4955115;28;20051;-80
2022/12/29 06:54:13;;;;;;;8.88;4.90;;;;;;;-0.24;64.07;99993.09;4956080;28;20043;-84
2022/12/29 06:56:48;;;;;;;11.25;5.30;;;;;;;-0.61;63.35;99937.19;4938217;29;20172;-82
2022/12/29 06:59:14;;;;;;;14.15;6.05;;;;;;;-0.43;63.69;99978.72;4957379;28;20043;-78
2022/12/29 07:01:40;;;;;;;13.68;6.05;;;;;;;-0.32;64.00;99997.91;4956706;28;20050;-83
2022/12/29 07:04:06;;;;;;;14.18;6.65;;;;;;;-0.17;63.64;100000.19;4956704;28;20115;-81
2022/12/29 07:06:32;;;;;;;11.35;6.40;;;;;;;-0.21;63.73;99988.09;4940893;28;20034;-80
2022/12/29 07:13:02;;;;;;;13.20;5.65;;;;;;;-0.49;64.55;99902.66;4883890;29;20145;-81
2022/12/29 07:16:34;;;;;;;;;;;;;;;;;;;;;
2022/12/29 07:19:51;;;;;;;16.75;6.38;;;;;;;-1.11;63.56;99741.94;4780587;29;20046;-80
2022/12/29 07:26:42;;;;;;;9.68;5.03;;;;;;;-0.04;63.55;99899.19;4885348;29;20473;-81
2022/12/29 07:29:12;;;;;;;17.52;4.95;;;;;;;-0.64;63.30;99767.47;4912118;28;20055;-83
2022/12/29 07:31:46;;;;;;;12.30;5.00;;;;;;;0.60;62.96;99979.03;4940852;28;20068;-85
2022/12/29 07:34:12;;;;;;;10.25;4.55;;;;;;;0.74;63.31;99993.19;4959419;28;20039;-80
2022/12/29 07:36:38;;;;;;;17.70;6.88;;;;;;;0.41;62.98;99947.69;4938062;29;20042;-76
2022/12/29 07:39:08;;;;;;;14.55;7.55;;;;;;;0.84;63.37;99999.50;4937908;28;20142;-80
2022/12/29 07:42:04;;;;;;;13.50;6.47;;;;;;;0.57;62.58;99931.13;4950972;28;20082;-77
2022/12/29 07:45:07;;;;;;;16.05;6.40;;;;;;;1.22;62.96;99977.63;4924196;29;20047;-77
2022/12/29 07:47:50;;;;;;;9.55;5.03;;;;;;;1.27;62.36;99976.09;4906140;29;20102;-81
2022/12/29 07:50:20;;;;;;;11.23;4.80;;;;;;;1.46;62.31;100004.03;4954608;28;20074;-79
2022/12/29 07:52:47;;;;;;;14.70;5.30;;;;;;;1.33;61.96;100004.50;4938871;28;20125;-76
2022/12/29 07:55:16;;;;;;;15.57;6.60;;;;;;;0.93;61.72;99977.56;4954864;28;20500;-78
2022/12/29 07:57:46;;;;;;;25.20;11.27;;;;;;;0.86;61.91;100008.09;4921619;28;20543;-76
2022/12/29 08:00:13;;;;;;;13.27;6.28;;;;;;;0.82;62.14;100005.41;4954042;28;20050;-77
2022/12/29 08:06:09;;;;;;;9.93;5.28;;;;;;;-0.22;61.65;99810.72;4930829;28;20051;-78
2022/12/29 08:08:48;;;;;;;9.52;4.15;;;;;;;0.31;62.07;99870.50;4938027;29;20501;-78
2022/12/29 08:11:20;;;;;;;10.30;3.67;;;;;;;1.47;61.63;100023.75;4909066;28;20431;-77
2022/12/29 08:13:47;;;;;;;9.98;3.85;;;;;;;1.30;60.71;99956.56;4940710;28;20043;-79
2022/12/29 08:16:13;;;;;;;8.77;3.67;;;;;;;2.20;61.44;100005.38;4939040;28;20035;-75
2022/12/29 08:18:39;;;;;;;7.15;3.60;;;;;;;2.35;60.82;100016.91;4925149;28;20078;-78
2022/12/29 08:21:05;;;;;;;10.23;3.40;;;;;;;2.32;61.04;100009.97;4960938;28;20043;-80
2022/12/29 08:24:09;;;;;;;7.40;3.03;;;;;;;2.20;59.97;99996.81;4958039;28;20043;-75
2022/12/29 08:26:35;;;;;;;8.70;3.30;;;;;;;2.24;59.99;100016.59;4940906;29;20043;-78
2022/12/29 08:29:04;;;;;;;5.40;3.08;;;;;;;2.28;59.94;100027.81;4956672;28;20440;-76
2022/12/29 08:31:30;;;;;;;5.03;2.78;;;;;;;2.19;59.99;100006.22;4960956;28;20137;-77
2022/12/29 08:34:01;;;;;;;5.53;3.25;;;;;;;2.19;59.53;100013.03;4927331;29;20074;-77
2022/12/29 08:36:31;;;;;;;7.43;2.90;;;;;;;1.98;59.33;100019.28;4939812;29;20500;-79
2022/12/29 08:38:58;;;;;;;5.65;2.90;;;;;;;1.72;59.73;99998.84;4940454;29;20048;-77
2022/12/29 08:44:26;;;;;;;5.90;2.65;;;;;;;1.94;60.03;100020.91;4908769;28;20110;-79
2022/12/29 08:46:55;;;;;;;7.80;3.17;;;;;;;2.03;60.13;100012.59;4939415;28;20039;-76
2022/12/29 08:49:37;;;;;;;5.95;2.95;;;;;;;1.54;59.36;99954.69;4941059;28;20043;-78
2022/12/29 08:52:07;;;;;;;6.22;3.28;;;;;;;1.02;59.31;99848.03;4923799;29;20047;-76
2022/12/29 08:54:36;;;;;;;7.43;3.03;;;;;;;2.60;59.36;100026.16;4909554;29;20039;-78
2022/12/29 08:57:03;;;;;;;6.85;3.15;;;;;;;2.64;58.76;100001.44;4933875;29;20077;-77
2022/12/29 08:59:42;;;;;;;6.47;2.97;;;;;;;2.91;59.31;100000.38;4916108;29;20051;-76
2022/12/29 09:02:15;;;;;;;6.13;2.97;;;;;;;3.85;59.21;100004.31;4927127;29;20416;-78
2022/12/29 09:04:44;;;;;;;7.22;3.03;;;;;;;5.60;60.68;99999.72;4928310;29;20098;-75
2022/12/29 09:07:10;;;;;;;5.10;3.15;;;;;;;7.22;58.78;99969.63;4927505;28;20138;-76
2022/12/29 09:09:36;;;;;;;4.85;2.83;;;;;;;8.96;58.78;99961.72;4961474;28;20074;-76
2022/12/29 09:12:23;;;;;;;8.00;3.72;;;;;;;10.43;55.94;99895.44;4925314;28;20043;-75
2022/12/29 09:15:47;;;;;;;7.10;3.33;;;;;;;12.79;52.86;99970.22;4946044;28;20122;-75
2022/12/29 09:18:48;;;;;;;6.00;3.55;;;;;;;13.49;51.18;99895.91;4930130;28;20047;-78
2022/12/29 09:21:32;;;;;;;6.47;3.30;;;;;;;13.44;47.57;99884.66;4922539;28;20049;-76
2022/12/29 09:23:58;;;;;;;9.10;3.90;;;;;;;13.15;45.88;99953.97;4956545;28;20050;-75
2022/12/29 09:26:40;;;;;;;8.32;3.20;;;;;;;11.97;44.17;99889.56;4938578;28;20079;-76
2022/12/29 09:29:24;;;;;;;6.57;3.13;;;;;;;12.01;45.12;99884.34;4959857;28;20045;-79
2022/12/29 09:32:16;;;;;;;7.82;3.47;;;;;;;12.34;44.46;99783.00;4934681;28;20183;-76
2022/12/29 09:34:50;;;;;;;5.20;2.92;;;;;;;13.81;42.88;99888.31;4935702;28;20054;-76
2022/12/29 09:37:16;;;;;;;5.65;3.90;;;;;;;14.49;42.02;99938.28;4969855;28;20042;-74
2022/12/29 09:49:13;;;;;;;5.35;3.10;;;;;;;15.71;38.24;99772.63;4814122;29;20478;-79
2022/12/29 09:51:44;;;;;;;5.82;3.55;;;;;;;15.16;36.23;99869.44;4933779;23;20067;-76
2022/12/29 09:54:49;;;;;;;6.45;3.10;;;;;;;13.62;36.90;99955.78;4916436;29;20044;-79
2022/12/29 09:57:49;;;;;;;9.27;4.28;;;;;;;11.33;37.85;99887.75;4917450;29;20055;-76
2022/12/29 10:00:46;;;;;;;9.48;4.35;;;;;;;10.18;39.36;99937.16;4912655;29;20047;-79
2022/12/29 10:03:19;;;;;;;7.35;3.95;;;;;;;9.27;39.66;99925.34;4916591;29;20064;-75
2022/12/29 10:06:15;;;;;;;5.78;3.65;;;;;;;8.56;40.17;99963.41;4901401;29;20036;-76
2022/12/29 10:09:11;;;;;;;8.73;3.55;;;;;;;7.89;41.14;99989.91;4903852;29;20088;-78
2022/12/29 10:11:40;;;;;;;6.47;3.70;;;;;;;6.99;42.02;99992.75;4924905;29;20051;-79
2022/12/29 10:14:19;;;;;;;9.00;4.47;;;;;;;6.46;43.02;99999.13;4919604;29;20052;-77
2022/12/29 10:17:24;;;;;;;7.43;3.90;;;;;;;5.86;43.65;99979.41;4924123;29;20060;-77
2022/12/29 10:20:15;;;;;;;9.10;4.30;;;;;;;5.67;44.25;99991.19;4928245;29;20102;-75
2022/12/29 10:23:28;;;;;;;5.82;4.05;;;;;;;5.45;45.17;99996.91;4940107;29;20490;-75
2022/12/29 10:26:02;;;;;;;8.52;3.92;;;;;;;5.27;45.79;99988.03;4945880;29;20083;-74
2022/12/29 10:29:07;;;;;;;6.55;3.75;;;;;;;5.07;46.14;99961.94;4903513;29;20064;-78
2022/12/29 10:32:05;;;;;;;6.97;3.80;;;;;;;5.28;45.83;100002.66;4931498;29;20394;-74
2022/12/29 10:35:23;;;;;;;7.53;3.80;;;;;;;4.66;46.41;99960.38;4893025;29;20056;-75
2022/12/29 10:38:05;;;;;;;7.28;3.53;;;;;;;4.76;46.86;100011.25;4950445;29;20036;-77
2022/12/29 10:40:50;;;;;;;;;;;;;;;4.66;46.93;100005.06;4933670;29;20083;-77
2022/12/29 10:43:57;;;;;;;10.80;4.50;;;;;;;4.49;47.39;100009.91;4931822;29;19982;-75
2022/12/29 10:46:40;;;;;;;6.85;3.75;;;;;;;4.30;47.28;99994.94;4895422;29;20040;-75
2022/12/29 10:49:22;;;;;;;5.85;3.15;;;;;;;4.28;47.65;100010.34;4914778;29;20040;-77
2022/12/29 10:51:59;;;;;;;4.50;2.53;;;;;;;4.08;48.11;100017.69;4901001;29;20116;-77
2022/12/29 10:54:57;;;;;;;3.95;2.47;;;;;;;3.89;48.34;100025.00;4899341;29;20104;-78
2022/12/29 10:57:43;;;;;;;4.10;2.67;;;;;;;3.76;48.48;100025.56;4900277;29;20387;-77
2022/12/29 11:00:16;;;;;;;4.85;3.13;;;;;;;3.10;49.32;99933.16;4914633;29;20041;-78
2022/12/29 11:02:59;;;;;;;4.60;2.90;;;;;;;3.65;49.20;100022.75;4900023;29;20053;-74
2022/12/29 11:05:33;;;;;;;5.50;3.00;;;;;;;3.59;49.79;100014.88;4899405;29;20479;-80
2022/12/29 11:08:10;;;;;;;5.03;2.70;;;;;;;2.36;49.90;99808.91;4900096;29;20411;-75
2022/12/29 11:10:42;;;;;;;4.10;3.08;;;;;;;2.47;50.01;99857.13;4914160;29;20048;-76
2022/12/29 11:13:48;;;;;;;7.20;3.30;;;;;;;3.45;50.67;100001.69;4880895;29;20047;-76
2022/12/29 11:16:26;;;;;;;7.20;3.97;;;;;;;3.40;50.66;99986.16;4866543;29;20100;-78
2022/12/29 11:18:55;;;;;;;5.53;3.58;;;;;;;3.26;51.06;99960.09;4880877;29;20048;-77
2022/12/29 11:21:41;;;;;;;7.57;3.55;;;;;;;2.71;50.83;99891.13;4897376;29;20491;-75
2022/12/29 11:24:29;;;;;;;7.13;4.10;;;;;;;2.46;51.48;99870.78;4884069;29;20044;-77
2022/12/29 11:27:26;;;;;;;7.53;3.53;;;;;;;2.39;51.75;99865.47;4885021;29;20044;-78
2022/12/29 11:29:57;;;;;;;7.05;3.55;;;;;;;2.53;51.33;99890.66;4896635;29;20498;-76
2022/12/29 11:32:31;;;;;;;8.00;3.83;;;;;;;1.92;52.11;99778.72;4896318;29;20577;-77
2022/12/29 11:35:07;;;;;;;6.22;3.97;;;;;;;1.95;51.64;99778.81;4879890;29;20139;-77
2022/12/29 11:37:39;;;;;;;6.53;3.85;;;;;;;3.28;51.89;100011.59;4895864;29;20032;-78
2022/12/29 11:40:20;;;;;;;8.57;4.13;;;;;;;2.00;52.13;99773.78;4895304;29;20056;-76
2022/12/29 11:42:51;;;;;;;10.65;3.80;;;;;;;3.33;52.05;99986.84;4896007;29;20075;-76
2022/12/29 11:45:35;;;;;;;9.02;4.30;;;;;;;3.29;52.05;99996.19;4897815;29;20080;-78
2022/12/29 11:48:18;;;;;;;7.53;4.20;;;;;;;3.26;52.67;100001.25;4906104;29;20073;-75
2022/12/29 11:50:52;;;;;;;9.57;4.20;;;;;;;3.19;52.45;99999.41;4920391;29;20071;-75
2022/12/29 11:53:24;;;;;;;8.32;4.30;;;;;;;3.03;52.99;99990.44;4900408;29;20074;-77
2022/12/29 11:55:58;;;;;;;8.07;4.20;;;;;;;2.94;52.64;99978.22;4917034;29;20050;-77
2022/12/29 11:58:38;;;;;;;8.85;4.57;;;;;;;3.03;52.79;100008.44;4899494;29;20055;-77
2022/12/29 12:01:13;;;;;;;9.25;5.03;;;;;;;2.87;52.94;99999.44;4883123;29;20138;-76
2022/12/29 12:03:48;;;;;;;7.88;4.78;;;;;;;2.73;53.23;99970.81;4882652;29;20044;-75
2022/12/29 12:06:20;;;;;;;6.97;4.50;;;;;;;2.75;52.95;100005.13;4898659;29;20527;-77
2022/12/29 12:09:00;;;;;;;7.15;4.47;;;;;;;2.88;53.92;100029.47;4899790;29;20050;-77
2022/12/29 12:11:37;;;;;;;10.52;4.30;;;;;;;2.36;53.80;99929.63;4883429;29;20040;-77
2022/12/29 12:14:34;;;;;;;8.07;4.57;;;;;;;2.93;53.92;100034.72;4898270;29;20044;-77
2022/12/29 12:17:47;;;;;;;8.70;4.20;;;;;;;2.95;53.99;100043.34;4900677;29;20051;-76
2022/12/29 12:20:44;;;;;;;9.27;4.20;;;;;;;1.64;53.67;99816.47;4870453;29;20050;-77
2022/12/29 12:23:36;;;;;;;9.27;3.95;;;;;;;2.77;53.89;100007.72;4914677;29;20040;-78
2022/12/29 12:26:29;;;;;;;9.68;4.07;;;;;;;2.80;54.08;100018.09;4917098;29;20477;-76
2022/12/29 12:29:38;;;;;;;7.07;4.05;;;;;;;2.81;54.00;100018.16;4884129;29;20040;-79
2022/12/29 12:32:24;;;;;;;8.60;4.22;;;;;;;2.68;54.54;99992.94;4891148;29;20082;-79
2022/12/29 12:34:51;;;;;;;8.95;4.47;;;;;;;2.76;54.12;100011.16;4916487;29;20090;-80
2022/12/29 12:37:35;;;;;;;11.45;5.40;;;;;;;2.84;55.09;100013.09;4899055;29;20425;-79
2022/12/29 12:40:03;;;;;;;10.48;5.00;;;;;;;2.79;54.65;100026.63;4925720;29;20058;-78
2022/12/29 12:43:08;;;;;;;9.27;4.45;;;;;;;2.73;54.92;100011.06;4916895;29;20469;-79
2022/12/29 12:45:47;;;;;;;7.20;4.20;;;;;;;2.74;54.44;100017.97;4916030;29;20043;-78
2022/12/29 12:48:19;;;;;;;9.20;4.30;;;;;;;2.68;54.62;100023.78;4915880;29;20513;-76
2022/12/29 12:51:06;;;;;;;10.13;4.72;;;;;;;2.55;55.06;100018.31;4883382;29;20541;-76
2022/12/29 12:54:06;;;;;;;8.57;4.28;;;;;;;2.24;55.18;99971.25;4919552;29;20111;-76
2022/12/29 12:57:14;;;;;;;7.47;4.68;;;;;;;2.54;55.29;100021.72;4899783;29;20134;-79
2022/12/29 13:00:01;;;;;;;7.95;4.15;;;;;;;2.48;55.57;100005.28;4899023;29;20044;-76
2022/12/29 13:02:40;;;;;;;9.85;4.20;;;;;;;2.55;55.55;100020.91;4905083;29;20119;-75
2022/12/29 13:05:12;;;;;;;11.68;4.40;;;;;;;2.54;56.08;100019.16;4944834;29;20051;-76
2022/12/29 13:07:50;;;;;;;11.70;4.90;;;;;;;2.52;56.01;100027.66;4934719;29;20078;-78
2022/12/29 13:10:30;;;;;;;9.07;4.63;;;;;;;2.47;55.90;100030.09;4919148;29;20136;-77
2022/12/29 13:13:32;;;;;;;10.25;5.57;;;;;;;2.21;55.90;100016.50;4935266;29;20032;-76
2022/12/29 13:16:26;;;;;;;10.98;5.28;;;;;;;2.20;56.34;100031.06;4936922;29;20068;-77
2022/12/29 13:19:22;;;;;;;8.07;5.20;;;;;;;2.24;56.48;100026.88;4918276;29;20044;-77
2022/12/29 13:22:08;;;;;;;12.02;6.32;;;;;;;2.30;56.05;100028.75;4918566;29;20119;-78
2022/12/29 13:24:47;;;;;;;10.98;5.57;;;;;;;2.31;56.45;100028.81;4916673;29;20104;-76